createdAt,value
2022-08-16T00:01:16.056Z,95845.75
2022-08-16T00:03:43.948Z,95847.63
2022-08-16T00:06:15.439Z,95851.28
2022-08-16T00:08:45.811Z,95852.50
2022-08-16T00:11:18.889Z,95848.81
2022-08-16T00:13:53.687Z,95843.94
2022-08-16T00:17:05.595Z,95841.59
2022-08-16T00:19:13.632Z,95851.78
2022-08-16T00:21:46.519Z,95842.78
2022-08-16T00:24:31.071Z,95843.53
2022-08-16T00:27:01.056Z,95849.66
2022-08-16T00:29:30.000Z,95849.66
2022-08-16T00:32:11.081Z,95849.66
2022-08-16T00:34:44.672Z,95850.88
2022-08-16T00:37:25.169Z,95856.47
2022-08-16T00:40:34.347Z,95864.38
2022-08-16T00:43:12.202Z,95860.00
2022-08-16T00:45:58.274Z,95856.34
2022-08-16T00:48:44.131Z,95856.91
2022-08-16T00:51:16.116Z,95853.22
2022-08-16T00:53:48.584Z,95857.03
2022-08-16T00:56:55.889Z,95862.81
2022-08-16T00:59:09.265Z,95854.69
2022-08-16T01:01:41.975Z,95849.78
2022-08-16T01:04:30.192Z,95857.31
2022-08-16T01:07:01.453Z,95853.81
2022-08-16T01:09:33.690Z,95851.03
2022-08-16T01:12:08.568Z,95848.66
2022-08-16T01:14:38.952Z,95856.06
2022-08-16T01:17:08.460Z,95859.75
2022-08-16T01:19:40.950Z,95852.59
2022-08-16T01:22:58.895Z,95860.09
2022-08-16T01:25:02.453Z,95864.25
2022-08-16T01:27:31.022Z,95859.34
2022-08-16T01:30:02.883Z,95862.56
2022-08-16T01:32:33.457Z,95864.03
2022-08-16T01:35:02.533Z,95867.38
2022-08-16T01:37:35.497Z,95867.81
2022-08-16T01:40:07.231Z,95866.09
2022-08-16T01:42:37.401Z,95866.47
2022-08-16T01:45:10.869Z,95861.81
2022-08-16T01:47:39.350Z,95857.97
2022-08-16T01:50:42.548Z,95856.13
2022-08-16T01:53:19.967Z,95862.56
2022-08-16T01:55:54.005Z,95856.31
2022-08-16T01:58:22.293Z,95861.16
2022-08-16T02:00:50.613Z,95867.44
2022-08-16T02:03:24.252Z,95865.25
2022-08-16T02:05:52.378Z,95860.53
2022-08-16T02:08:33.439Z,95855.56
2022-08-16T02:11:15.009Z,95860.25
2022-08-16T02:13:42.731Z,95855.25
2022-08-16T02:16:18.600Z,95858.28
2022-08-16T02:18:49.097Z,95850.94
2022-08-16T02:21:17.110Z,95857.78
2022-08-16T02:24:01.158Z,95847.38
2022-08-16T02:26:34.219Z,95850.28
2022-08-16T02:29:02.510Z,95885.66
2022-08-16T02:32:02.859Z,95859.19
2022-08-16T02:34:19.939Z,95853.88
2022-08-16T02:37:00.752Z,95853.31
2022-08-16T02:39:30.283Z,95853.09
2022-08-16T02:41:59.698Z,95852.59
2022-08-16T02:44:28.464Z,95850.78
2022-08-16T02:46:56.316Z,95851.09
2022-08-16T02:49:58.314Z,95844.06
2022-08-16T02:52:17.411Z,95846.34
2022-08-16T02:54:55.863Z,95842.16
2022-08-16T02:57:25.294Z,95844.44
2022-08-16T02:59:53.060Z,95834.31
2022-08-16T03:02:20.741Z,95832.78
2022-08-16T03:05:02.221Z,95833.88
2022-08-16T03:07:37.055Z,95832.47
2022-08-16T03:10:09.074Z,95827.16
2022-08-16T03:12:55.914Z,95828.78
2022-08-16T03:15:24.633Z,95825.97
2022-08-16T03:17:54.257Z,95824.28
2022-08-16T03:20:22.028Z,95817.59
2022-08-16T03:23:02.644Z,95828.94
2022-08-16T03:25:44.231Z,95813.94
2022-08-16T03:28:17.241Z,95820.63
2022-08-16T03:30:47.711Z,95821.25
2022-08-16T03:33:15.840Z,95816.00
2022-08-16T03:35:44.348Z,95818.41
2022-08-16T03:38:34.005Z,95814.63
2022-08-16T03:41:03.132Z,95818.47
2022-08-16T03:43:51.747Z,95817.53
2022-08-16T03:46:48.091Z,95825.06
2022-08-16T03:49:11.508Z,95811.84
2022-08-16T03:51:42.690Z,95814.72
2022-08-16T03:54:12.377Z,95818.28
2022-08-16T03:56:56.668Z,95819.13
2022-08-16T03:59:29.287Z,95815.19
2022-08-16T04:01:57.877Z,95818.88
2022-08-16T04:04:36.409Z,95824.97
2022-08-16T04:07:05.809Z,95825.97
2022-08-16T04:09:38.105Z,95817.50
2022-08-16T04:12:53.291Z,95813.28
2022-08-16T04:15:09.114Z,95812.13
2022-08-16T04:17:38.394Z,95812.06
2022-08-16T04:20:31.346Z,95821.94
2022-08-16T04:22:57.091Z,95822.13
2022-08-16T04:25:26.517Z,95822.78
2022-08-16T04:27:56.002Z,95826.16
2022-08-16T04:30:31.943Z,95825.94
2022-08-16T04:33:04.819Z,95830.19
2022-08-16T04:35:34.754Z,95834.63
2022-08-16T04:38:10.563Z,95641.78
2022-08-16T04:40:38.560Z,95834.38
2022-08-16T04:43:08.373Z,95840.00
2022-08-16T04:45:40.310Z,95832.94
2022-08-16T04:48:10.402Z,95834.06
2022-08-16T04:50:43.497Z,95846.00
2022-08-16T04:53:12.115Z,95845.22
2022-08-16T04:55:45.935Z,95846.53
2022-08-16T04:58:44.581Z,95847.69
2022-08-16T05:01:02.899Z,95857.84
2022-08-16T05:03:35.826Z,95855.31
2022-08-16T05:06:10.188Z,95856.47
2022-08-16T05:08:47.134Z,95855.09
2022-08-16T05:11:16.653Z,95865.25
2022-08-16T05:13:47.703Z,95863.88
2022-08-16T05:16:21.724Z,95862.81
2022-08-16T05:18:51.837Z,95864.06
2022-08-16T05:21:20.785Z,95865.91
2022-08-16T05:23:55.897Z,95870.81
2022-08-16T05:26:27.779Z,95873.75
2022-08-16T05:28:56.486Z,95868.59
2022-08-16T05:31:29.348Z,95872.75
2022-08-16T05:34:04.346Z,95865.81
2022-08-16T05:36:34.160Z,95866.06
2022-08-16T05:39:08.687Z,95884.25
2022-08-16T05:41:45.436Z,95869.09
2022-08-16T05:44:23.849Z,95868.94
2022-08-16T05:46:56.473Z,95836.66
2022-08-16T05:49:25.663Z,95866.41
2022-08-16T05:52:11.146Z,95863.94
2022-08-16T05:54:47.536Z,95876.38
2022-08-16T05:57:16.470Z,95883.28
2022-08-16T05:59:45.581Z,95873.38
2022-08-16T06:02:15.932Z,95878.47
2022-08-16T06:04:45.101Z,95879.28
2022-08-16T06:07:24.524Z,95881.16
2022-08-16T06:10:01.115Z,95875.91
2022-08-16T06:12:32.399Z,95879.34
2022-08-16T06:15:07.860Z,95879.28
2022-08-16T06:17:43.219Z,95883.94
2022-08-16T06:20:14.441Z,95884.72
2022-08-16T06:22:47.878Z,95890.44
2022-08-16T06:25:35.869Z,95884.19
2022-08-16T06:28:08.846Z,95889.34
2022-08-16T06:30:43.630Z,95893.59
2022-08-16T06:33:19.820Z,95891.91
2022-08-16T06:35:55.253Z,95890.22
2022-08-16T06:38:33.305Z,95889.94
2022-08-16T06:41:04.527Z,95891.06
2022-08-16T06:43:34.186Z,95885.03
2022-08-16T06:46:03.555Z,95879.25
2022-08-16T06:48:36.601Z,95870.88
2022-08-16T06:51:12.261Z,95870.38
2022-08-16T06:53:42.984Z,95879.66
2022-08-16T06:56:14.426Z,95884.16
2022-08-16T07:01:15.676Z,95893.09
2022-08-16T07:03:55.602Z,95889.06
2022-08-16T07:06:26.793Z,95893.97
2022-08-16T07:08:55.987Z,95898.53
2022-08-16T07:11:47.394Z,95898.72
2022-08-16T07:14:25.540Z,95892.69
2022-08-16T07:16:54.812Z,95902.91
2022-08-16T07:20:02.165Z,95899.25
2022-08-16T07:22:38.767Z,95895.28
2022-08-16T07:25:06.638Z,95883.06
2022-08-16T07:27:37.336Z,95882.94
2022-08-16T07:30:38.475Z,95888.84
2022-08-16T07:32:56.910Z,95878.16
2022-08-16T07:35:26.520Z,95882.81
2022-08-16T07:37:54.946Z,95879.91
2022-08-16T07:40:49.168Z,95883.19
2022-08-16T07:43:11.719Z,95874.59
2022-08-16T07:45:42.966Z,95715.63
2022-08-16T07:48:13.477Z,95890.53
2022-08-16T07:50:56.423Z,95884.44
2022-08-16T07:53:29.149Z,95890.47
2022-08-16T07:55:57.780Z,95881.34
2022-08-16T07:58:35.183Z,95876.84
2022-08-16T08:01:10.367Z,95888.78
2022-08-16T08:03:42.487Z,95894.09
2022-08-16T08:06:14.921Z,95892.13
2022-08-16T08:08:50.563Z,95900.59
2022-08-16T08:14:06.562Z,95891.59
2022-08-16T08:16:37.649Z,95892.34
2022-08-16T08:19:05.489Z,95902.59
2022-08-16T08:21:58.805Z,95906.91
2022-08-16T08:24:32.366Z,95909.34
2022-08-16T08:27:02.075Z,95911.94
2022-08-16T08:29:37.233Z,95904.53
2022-08-16T08:32:59.673Z,95787.25
2022-08-16T08:34:56.206Z,95908.84
2022-08-16T08:37:54.278Z,95903.34
2022-08-16T08:40:24.644Z,95905.84
2022-08-16T08:43:00.836Z,95910.69
2022-08-16T08:45:48.542Z,95920.63
2022-08-16T08:48:33.016Z,95922.16
2022-08-16T08:51:03.700Z,95921.19
2022-08-16T08:53:33.697Z,95916.72
2022-08-16T08:56:23.511Z,95917.22
2022-08-16T08:58:54.762Z,95918.28
2022-08-16T09:01:36.785Z,95918.72
2022-08-16T09:04:14.435Z,95914.59
2022-08-16T09:06:45.912Z,95928.25
2022-08-16T09:09:20.120Z,95920.41
2022-08-16T09:11:53.750Z,95920.41
2022-08-16T09:14:34.467Z,95921.44
2022-08-16T09:17:11.816Z,95924.91
2022-08-16T09:19:55.119Z,95927.28
2022-08-16T09:22:23.543Z,95923.38
2022-08-16T09:24:58.126Z,95917.47
2022-08-16T09:27:56.845Z,95916.16
2022-08-16T09:30:33.353Z,95918.69
2022-08-16T09:33:06.788Z,95907.56
2022-08-16T09:35:37.528Z,95907.13
2022-08-16T09:38:08.305Z,95909.88
2022-08-16T09:40:43.351Z,95914.13
2022-08-16T09:43:37.768Z,95922.72
2022-08-16T09:46:00.522Z,95913.03
2022-08-16T09:48:43.884Z,95927.88
2022-08-16T09:51:14.420Z,95924.09
2022-08-16T09:53:43.176Z,95918.88
2022-08-16T09:56:21.357Z,95924.13
2022-08-16T09:59:04.877Z,95924.84
2022-08-16T10:01:36.574Z,95928.97
2022-08-16T10:04:14.257Z,95930.00
2022-08-16T10:06:53.453Z,95930.13
2022-08-16T10:09:23.449Z,95930.50
2022-08-16T10:12:11.747Z,95930.38
2022-08-16T10:14:46.891Z,95934.66
2022-08-16T10:17:18.387Z,95921.88
2022-08-16T10:19:47.727Z,95934.06
2022-08-16T10:22:18.481Z,95932.22
2022-08-16T10:24:55.826Z,95941.94
2022-08-16T10:27:45.797Z,95935.97
2022-08-16T10:30:25.068Z,95929.13
2022-08-16T10:32:54.112Z,95937.06
2022-08-16T10:35:22.834Z,95930.41
2022-08-16T10:37:53.165Z,95924.63
2022-08-16T10:40:29.716Z,95929.47
2022-08-16T10:43:01.059Z,95932.59
2022-08-16T10:45:36.953Z,95938.09
2022-08-16T10:48:06.527Z,95945.53
2022-08-16T10:50:56.356Z,95943.94
2022-08-16T10:53:26.478Z,95939.19
2022-08-16T10:56:01.502Z,95936.28
2022-08-16T10:58:34.260Z,95937.22
2022-08-16T11:01:39.643Z,95934.38
2022-08-16T11:03:54.041Z,95928.69
2022-08-16T11:06:26.874Z,95934.56
2022-08-16T11:14:34.920Z,95937.63
2022-08-16T11:17:10.583Z,95939.34
2022-08-16T11:22:47.255Z,95945.34
2022-08-16T11:26:07.060Z,95944.06
2022-08-16T11:28:06.449Z,95935.00
2022-08-16T11:30:36.074Z,95933.84
2022-08-16T11:33:07.306Z,95936.41
2022-08-16T11:38:51.311Z,95935.94
2022-08-16T11:41:13.517Z,95931.59
2022-08-16T11:43:42.335Z,95920.50
2022-08-16T11:46:44.691Z,95920.56
2022-08-16T11:49:02.095Z,95919.47
2022-08-16T11:51:29.926Z,95914.97
2022-08-16T11:53:58.879Z,95909.91
2022-08-16T11:56:39.497Z,95908.97
2022-08-16T11:59:19.180Z,95917.28
2022-08-16T12:01:59.438Z,95928.13
2022-08-16T12:04:31.790Z,95914.25
2022-08-16T12:06:59.947Z,95913.34
2022-08-16T12:09:33.767Z,95920.69
2022-08-16T12:12:09.214Z,95905.25
2022-08-16T12:14:37.690Z,95916.94
2022-08-16T12:17:09.343Z,95915.81
2022-08-16T12:19:36.966Z,95913.06
2022-08-16T12:22:19.300Z,95910.75
2022-08-16T12:24:52.328Z,95907.25
2022-08-16T12:27:23.010Z,95907.66
2022-08-16T12:29:51.837Z,95902.19
2022-08-16T12:32:38.452Z,95901.38
2022-08-16T12:35:11.606Z,95894.81
2022-08-16T12:37:41.699Z,95899.31
2022-08-16T12:40:24.158Z,95893.91
2022-08-16T12:42:54.266Z,95899.66
2022-08-16T12:45:23.252Z,95892.63
2022-08-16T12:48:32.896Z,95893.09
2022-08-16T12:51:01.101Z,95892.06
2022-08-16T12:53:31.959Z,95878.56
2022-08-16T12:56:00.372Z,95872.88
2022-08-16T12:58:47.489Z,95762.44
2022-08-16T13:01:22.668Z,95874.00
2022-08-16T13:04:11.421Z,95880.13
2022-08-16T13:06:43.506Z,95877.63
2022-08-16T13:09:23.712Z,95885.72
2022-08-16T13:12:04.583Z,95874.28
2022-08-16T13:14:37.910Z,95883.78
2022-08-16T13:17:07.717Z,95882.50
2022-08-16T13:22:30.573Z,95866.59
2022-08-16T13:25:02.260Z,95879.31
2022-08-16T13:28:02.859Z,95873.47
2022-08-16T13:30:36.600Z,95860.75
2022-08-16T13:33:10.753Z,95857.78
2022-08-16T13:35:43.323Z,95856.75
2022-08-16T13:38:12.597Z,95859.94
2022-08-16T13:40:53.079Z,95862.78
2022-08-16T13:43:23.849Z,95854.72
2022-08-16T13:45:51.825Z,95851.69
2022-08-16T13:48:24.661Z,95855.63
2022-08-16T13:51:02.494Z,95856.63
2022-08-16T13:53:32.493Z,95856.59
2022-08-16T13:56:03.519Z,95858.19
2022-08-16T13:58:34.689Z,95846.59
2022-08-16T14:01:09.739Z,95845.53
2022-08-16T14:03:38.730Z,95847.63
2022-08-16T14:06:12.923Z,95837.94
2022-08-16T14:08:43.187Z,95843.78
2022-08-16T14:11:12.103Z,95839.13
2022-08-16T14:13:43.847Z,95841.59
2022-08-16T14:16:24.176Z,95838.50
2022-08-16T14:18:52.873Z,95837.00
2022-08-16T14:21:23.675Z,95847.41
2022-08-16T14:23:52.684Z,95842.53
2022-08-16T14:26:24.853Z,95834.53
2022-08-16T14:28:53.223Z,95839.47
2022-08-16T14:31:22.246Z,95844.44
2022-08-16T14:33:52.651Z,95849.44
2022-08-16T14:36:29.910Z,95842.63
2022-08-16T14:38:58.346Z,95845.28
2022-08-16T14:41:26.390Z,95843.50
2022-08-16T14:43:54.470Z,95840.44
2022-08-16T14:46:22.413Z,95841.63
2022-08-16T14:48:50.473Z,95839.13
2022-08-16T14:51:27.427Z,95854.28
2022-08-16T14:53:56.995Z,95842.81
2022-08-16T14:56:42.993Z,95837.91
2022-08-16T14:59:12.841Z,95841.97
2022-08-16T15:01:57.353Z,95841.06
2022-08-16T15:04:32.569Z,95836.22
2022-08-16T15:07:12.651Z,95838.81
2022-08-16T15:09:44.225Z,95843.66
2022-08-16T15:12:31.144Z,95832.44
2022-08-16T15:15:13.164Z,95832.38
2022-08-16T15:17:56.741Z,95836.38
2022-08-16T15:20:30.324Z,95831.31
2022-08-16T15:23:01.659Z,95833.59
2022-08-16T15:25:30.511Z,95839.66
2022-08-16T15:27:58.594Z,95826.66
2022-08-16T15:30:57.818Z,95827.88
2022-08-16T15:33:17.436Z,95830.63
2022-08-16T15:35:46.352Z,95838.97
2022-08-16T15:38:57.154Z,95838.69
2022-08-16T15:41:03.377Z,95836.00
2022-08-16T15:43:39.522Z,95840.56
2022-08-16T15:46:35.155Z,95848.38
2022-08-16T15:49:13.706Z,95842.78
2022-08-16T15:51:43.668Z,95839.88
2022-08-16T15:54:30.367Z,95844.19
2022-08-16T15:57:02.957Z,95851.59
2022-08-16T15:59:47.984Z,95839.13
2022-08-16T16:02:24.469Z,95837.53
2022-08-16T16:05:00.670Z,95842.22
2022-08-16T16:07:29.986Z,95839.50
2022-08-16T16:10:00.840Z,95842.53
2022-08-16T16:12:51.044Z,95842.84
2022-08-16T16:15:16.495Z,95836.38
2022-08-16T16:17:46.811Z,95842.69
2022-08-16T16:20:19.407Z,95835.53
2022-08-16T16:22:49.345Z,95837.91
2022-08-16T16:25:20.161Z,95827.97
2022-08-16T16:27:55.656Z,95835.88
2022-08-16T16:30:45.065Z,95831.13
2022-08-16T16:33:20.652Z,95823.56
2022-08-16T16:35:55.315Z,95827.63
2022-08-16T16:38:26.894Z,95836.22
2022-08-16T16:40:56.251Z,95835.03
2022-08-16T16:43:25.995Z,95831.25
2022-08-16T16:45:59.325Z,95838.31
2022-08-16T16:48:35.075Z,95844.19
2022-08-16T16:51:09.042Z,95839.50
2022-08-16T16:53:40.476Z,95836.00
2022-08-16T16:56:10.550Z,95840.63
2022-08-16T16:59:04.692Z,95839.06
2022-08-16T17:01:59.482Z,95839.78
2022-08-16T17:04:32.246Z,95842.16
2022-08-16T17:07:01.314Z,95839.88
2022-08-16T17:09:29.405Z,95840.66
2022-08-16T17:11:59.496Z,95848.81
2022-08-16T17:14:32.964Z,95844.53
2022-08-16T17:17:03.993Z,95839.84
2022-08-16T17:19:41.274Z,95844.13
2022-08-16T17:22:14.912Z,95838.28
2022-08-16T17:24:45.052Z,95838.31
2022-08-16T17:27:18.068Z,95837.56
2022-08-16T17:29:51.572Z,95835.19
2022-08-16T17:32:33.885Z,95833.66
2022-08-16T17:35:13.087Z,95860.84
2022-08-16T17:37:51.886Z,95838.59
2022-08-16T17:40:47.390Z,95851.41
2022-08-16T17:43:19.369Z,95847.91
2022-08-16T17:45:49.447Z,95852.94
2022-08-16T17:48:18.211Z,95858.44
2022-08-16T17:50:46.657Z,95850.31
2022-08-16T17:53:16.398Z,95854.56
2022-08-16T17:55:49.582Z,95854.19
2022-08-16T17:58:24.115Z,95852.56
2022-08-16T18:00:55.911Z,95856.81
2022-08-16T18:04:02.441Z,95856.06
2022-08-16T18:06:16.940Z,95848.28
2022-08-16T18:08:45.270Z,95854.91
2022-08-16T18:11:25.709Z,95860.66
2022-08-16T18:13:59.784Z,95857.53
2022-08-16T18:16:27.467Z,95857.13
2022-08-16T18:18:55.248Z,95860.50
2022-08-16T18:21:42.612Z,95860.50
2022-08-16T18:24:14.886Z,95859.63
2022-08-16T18:26:42.838Z,95860.75
2022-08-16T18:29:16.936Z,95861.19
2022-08-16T18:31:44.981Z,95867.41
2022-08-16T18:34:12.853Z,95861.63
2022-08-16T18:36:43.177Z,95863.97
2022-08-16T18:39:12.759Z,95884.56
2022-08-16T18:41:40.969Z,95862.00
2022-08-16T18:44:25.566Z,95865.84
2022-08-16T18:46:58.333Z,95868.88
2022-08-16T18:49:26.387Z,95865.34
2022-08-16T18:51:57.293Z,95864.97
2022-08-16T18:54:26.318Z,95898.28
2022-08-16T18:56:56.705Z,95872.63
2022-08-16T18:59:26.397Z,95881.19
2022-08-16T19:01:59.977Z,95886.97
2022-08-16T19:04:56.838Z,95872.50
2022-08-16T19:07:23.276Z,95870.59
2022-08-16T19:09:59.357Z,95878.63
2022-08-16T19:12:37.885Z,95885.47
2022-08-16T19:15:12.169Z,95890.03
2022-08-16T19:17:41.694Z,95886.13
2022-08-16T19:20:11.854Z,95892.75
2022-08-16T19:23:02.254Z,95894.72
2022-08-16T19:25:46.886Z,95894.66
2022-08-16T19:28:50.629Z,95902.78
2022-08-16T19:31:05.660Z,95906.28
2022-08-16T19:33:33.564Z,95907.78
2022-08-16T19:36:03.404Z,95909.06
2022-08-16T19:38:34.317Z,95911.28
2022-08-16T19:41:02.777Z,95909.00
2022-08-16T19:43:30.619Z,95901.16
2022-08-16T19:45:58.343Z,95912.34
2022-08-16T19:48:31.001Z,95909.94
2022-08-16T19:50:58.755Z,95902.28
2022-08-16T19:53:28.084Z,95905.19
2022-08-16T19:55:56.090Z,95900.00
2022-08-16T19:58:23.858Z,95899.31
2022-08-16T20:00:52.397Z,95908.31
2022-08-16T20:03:24.556Z,95908.63
2022-08-16T20:05:55.215Z,95905.06
2022-08-16T20:08:25.382Z,95907.13
2022-08-16T20:10:55.702Z,95911.91
2022-08-16T20:13:24.338Z,95904.34
2022-08-16T20:15:53.403Z,95899.31
2022-08-16T20:18:25.359Z,95911.13
2022-08-16T20:20:54.946Z,95902.34
2022-08-16T20:23:25.707Z,95912.94
2022-08-16T20:25:56.633Z,95917.56
2022-08-16T20:28:39.703Z,95917.53
2022-08-16T20:31:14.701Z,95917.59
2022-08-16T20:33:42.585Z,95904.38
2022-08-16T20:36:10.658Z,95908.41
2022-08-16T20:38:50.400Z,95917.72
2022-08-16T20:41:30.201Z,95913.97
2022-08-16T20:43:58.448Z,95533.88
2022-08-16T20:46:29.418Z,95908.94
2022-08-16T20:48:57.221Z,95914.94
2022-08-16T20:51:27.235Z,95910.81
2022-08-16T20:53:57.446Z,95914.28
2022-08-16T20:56:33.010Z,95913.13
2022-08-16T20:59:01.084Z,95920.28
2022-08-16T21:01:45.457Z,95914.06
2022-08-16T21:04:19.050Z,95917.19
2022-08-16T21:06:53.870Z,95919.31
2022-08-16T21:09:23.091Z,95915.56
2022-08-16T21:11:54.160Z,95918.25
2022-08-16T21:14:21.906Z,95926.84
2022-08-16T21:16:56.083Z,95920.38
2022-08-16T21:19:23.803Z,95921.44
2022-08-16T21:21:51.943Z,95921.56
2022-08-16T21:24:19.719Z,95926.75
2022-08-16T21:26:53.927Z,95927.34
2022-08-16T21:29:25.261Z,95929.59
2022-08-16T21:32:14.614Z,95927.34
2022-08-16T21:34:44.913Z,95933.09
2022-08-16T21:37:15.539Z,95930.09
2022-08-16T21:39:43.658Z,95937.72
2022-08-16T21:42:18.742Z,95943.13
2022-08-16T21:44:51.115Z,95769.00
2022-08-16T21:47:18.740Z,95934.13
2022-08-16T21:49:46.499Z,95935.56
2022-08-16T21:52:26.264Z,95927.75
2022-08-16T21:54:59.430Z,95928.31
2022-08-16T21:57:36.233Z,95927.34
2022-08-16T22:00:08.170Z,95938.47
2022-08-16T22:02:38.898Z,95933.25
2022-08-16T22:05:07.306Z,95934.25
2022-08-16T22:07:35.198Z,95941.44
2022-08-16T22:11:04.147Z,95941.63
2022-08-16T22:12:51.461Z,95946.53
2022-08-16T22:15:26.036Z,95941.56
2022-08-16T22:17:54.054Z,95947.63
2022-08-16T22:20:23.194Z,95942.94
2022-08-16T22:22:51.845Z,95945.72
2022-08-16T22:25:19.905Z,95943.72
2022-08-16T22:27:47.575Z,95936.31
2022-08-16T22:30:15.577Z,95936.69
2022-08-16T22:32:45.959Z,95941.53
2022-08-16T22:35:14.495Z,95936.97
2022-08-16T22:38:50.576Z,95943.38
2022-08-16T22:40:30.121Z,95945.88
2022-08-16T22:43:11.983Z,95956.34
2022-08-16T22:45:39.928Z,95951.66
2022-08-16T22:48:14.037Z,95944.19
2022-08-16T22:50:43.098Z,95955.66
2022-08-16T22:53:10.867Z,95949.19
2022-08-16T22:55:40.671Z,95945.72
2022-08-16T22:58:10.473Z,95946.09
2022-08-16T23:00:38.442Z,95942.44
2022-08-16T23:03:07.538Z,95942.78
2022-08-16T23:05:38.042Z,95943.91
2022-08-16T23:08:06.420Z,95942.34
2022-08-16T23:10:36.099Z,95938.53
2022-08-16T23:13:04.937Z,95719.66
2022-08-16T23:15:43.067Z,95936.59
2022-08-16T23:18:11.485Z,95932.72
2022-08-16T23:20:42.499Z,95926.28
2022-08-16T23:23:20.355Z,95930.94
2022-08-16T23:25:55.231Z,95928.28
2022-08-16T23:28:29.098Z,95923.59
2022-08-16T23:30:59.930Z,95919.47
2022-08-16T23:33:29.834Z,95920.06
2022-08-16T23:35:59.284Z,95914.28
2022-08-16T23:38:37.457Z,95676.22
2022-08-16T23:41:09.500Z,95908.66
2022-08-16T23:43:45.513Z,95908.34
2022-08-16T23:46:15.163Z,95903.78
2022-08-16T23:49:56.240Z,95886.75
2022-08-16T23:51:33.450Z,95887.88
2022-08-16T23:54:01.257Z,95886.72
2022-08-16T23:56:40.540Z,95891.25
2022-08-16T23:59:24.142Z,95887.44
